Time;durP1;ratioP1;P1;durP2;ratioP2;P2;SDS_P1;SDS_P2;PMS_P1;PMS_P2;Temp;Humidity;BMP_temperature;BMP_pressure;BME280_temperature;BME280_humidity;BME280_pressure;Samples;Min_cycle;Max_cycle;Signal;HPM_P1;HPM_P2
2023/06/09 00:02:08;;;;;;;;;;;;;;;;;;;;;
2023/06/09 00:04:35;;;;;;;11.38;3.67;;;21.60;74.80;;;;;;5060180;28;20112;-90
2023/06/09 00:07:33;;;;;;;7.82;3.30;;;21.50;74.80;;;;;;5046105;28;20116;-90
2023/06/09 00:09:59;;;;;;;8.68;3.70;;;21.50;74.90;;;;;;5040308;28;20067;-91
2023/06/09 00:12:27;;;;;;;9.05;4.03;;;21.40;75.10;;;;;;5040149;28;20449;-91
2023/06/09 00:14:59;;;;;;;13.98;3.72;;;21.40;75.20;;;;;;5039889;28;20037;-95
2023/06/09 00:17:25;;;;;;;10.48;3.47;;;21.30;75.30;;;;;;5040939;28;20493;-91
2023/06/09 00:20:02;;;;;;;;;;;;;;;;;;;;;
2023/06/09 00:22:34;;;;;;;8.95;4.07;;;21.30;75.60;;;;;;5059191;28;20104;-90
2023/06/09 00:25:00;;;;;;;8.18;3.70;;;21.20;75.60;;;;;;5039755;28;20063;-90
2023/06/09 00:27:29;;;;;;;9.63;3.75;;;21.20;75.60;;;;;;5057500;28;20025;-90
2023/06/09 00:29:57;;;;;;;11.32;3.88;;;21.20;75.70;;;;;;5039564;28;20488;-94
2023/06/09 00:32:27;;;;;;;7.38;3.85;;;21.10;75.70;;;;;;5039258;28;20041;-91
2023/06/09 00:34:53;;;;;;;10.38;4.07;;;21.10;75.70;;;;;;5039582;28;20043;-91
2023/06/09 00:37:26;;;;;;;10.05;3.85;;;21.10;75.70;;;;;;5039423;28;20116;-90
2023/06/09 00:40:05;;;;;;;;;;;;;;;;;;;;;
2023/06/09 00:42:34;;;;;;;10.52;3.60;;;21.00;76.00;;;;;;5039348;28;20025;-90
2023/06/09 00:45:02;;;;;;;8.13;3.58;;;20.90;76.00;;;;;;5019109;28;20060;-91
2023/06/09 00:47:31;;;;;;;11.60;3.95;;;20.90;76.20;;;;;;5018881;28;20124;-89
2023/06/09 00:49:59;;;;;;;10.68;3.85;;;20.90;76.20;;;;;;5019274;28;20030;-91
2023/06/09 00:52:27;;;;;;;9.75;4.35;;;20.90;76.30;;;;;;5019457;28;20033;-90
2023/06/09 00:54:58;;;;;;;11.98;3.53;;;20.80;76.40;;;;;;5036420;28;20029;-90
2023/06/09 00:57:33;;;;;;;9.63;3.83;;;20.80;76.50;;;;;;5019363;28;20025;-91
2023/06/09 01:00:07;;;;;;;10.05;3.83;;;20.70;76.50;;;;;;5017794;28;20163;-90
2023/06/09 01:02:39;;;;;;;10.50;3.85;;;20.70;76.60;;;;;;5019812;28;20049;-91
2023/06/09 01:05:09;;;;;;;9.95;3.78;;;20.70;76.70;;;;;;5018951;28;20033;-90
2023/06/09 01:07:57;;;;;;;9.05;3.45;;;20.60;76.70;;;;;;5018828;28;20029;-90
2023/06/09 01:10:38;;;;;;;10.85;3.60;;;20.60;76.90;;;;;;5018780;28;20021;-91
2023/06/09 01:13:43;;;;;;;10.80;3.72;;;20.60;76.90;;;;;;5019043;28;20087;-89
2023/06/09 01:16:43;;;;;;;11.38;4.03;;;20.60;77.10;;;;;;5036148;28;20079;-90
2023/06/09 01:19:34;;;;;;;11.05;3.75;;;20.50;77.30;;;;;;5018913;28;20455;-89
2023/06/09 01:22:06;;;;;;;10.50;3.80;;;20.50;77.40;;;;;;5035755;28;20099;-90
2023/06/09 01:24:35;;;;;;;9.43;3.28;;;20.50;77.40;;;;;;5019569;28;20029;-89
2023/06/09 01:27:02;;;;;;;10.55;3.75;;;20.40;77.50;;;;;;5018512;28;20103;-92
2023/06/09 01:29:32;;;;;;;11.88;4.07;;;20.40;77.50;;;;;;5035120;28;20030;-90
2023/06/09 01:32:08;;;;;;;10.43;3.90;;;20.30;77.70;;;;;;5018259;28;20033;-89
2023/06/09 01:34:36;;;;;;;11.10;3.70;;;20.40;77.90;;;;;;5018918;28;20755;-90
2023/06/09 01:37:03;;;;;;;14.20;4.47;;;20.30;77.80;;;;;;5018732;28;20065;-92
2023/06/09 01:39:31;;;;;;;14.70;3.97;;;20.30;78.00;;;;;;5035227;28;20025;-90
2023/06/09 01:42:00;;;;;;;12.98;4.13;;;20.30;78.00;;;;;;5018452;28;20026;-90
2023/06/09 01:44:26;;;;;;;9.20;3.40;;;20.20;78.00;;;;;;5017827;28;20026;-90
2023/06/09 01:47:03;;;;;;;12.93;3.95;;;20.20;78.20;;;;;;5035775;28;20036;-90
2023/06/09 01:49:44;;;;;;;11.65;4.28;;;20.20;78.50;;;;;;5018492;28;20033;-89
2023/06/09 01:52:27;;;;;;;11.57;3.78;;;20.10;78.60;;;;;;5017921;28;20120;-89
2023/06/09 01:54:57;;;;;;;15.15;4.53;;;20.10;78.70;;;;;;5034957;28;20018;-90
2023/06/09 01:58:04;;;;;;;8.57;3.60;;;20.10;78.90;;;;;;5018676;28;20398;-90
2023/06/09 02:00:58;;;;;;;12.95;4.15;;;20.00;79.00;;;;;;4985921;28;20379;-89
2023/06/09 02:03:27;;;;;;;9.23;4.03;;;20.00;79.00;;;;;;5018134;28;20377;-89
2023/06/09 02:05:54;;;;;;;8.93;3.72;;;19.90;79.10;;;;;;5018232;28;20028;-89
2023/06/09 02:08:23;;;;;;;9.57;4.20;;;19.90;79.20;;;;;;5017567;28;20033;-89
2023/06/09 02:11:08;;;;;;;12.77;4.28;;;19.90;79.40;;;;;;5018152;28;20022;-90
2023/06/09 02:13:34;;;;;;;10.20;3.70;;;19.80;79.70;;;;;;5017918;28;20120;-90
2023/06/09 02:16:03;;;;;;;11.05;4.15;;;19.80;79.80;;;;;;5033955;28;20461;-90
2023/06/09 02:18:32;;;;;;;10.98;3.92;;;19.80;79.80;;;;;;5017938;28;20026;-91
2023/06/09 02:20:59;;;;;;;13.43;4.38;;;19.70;79.80;;;;;;5017379;28;20033;-90
2023/06/09 02:23:50;;;;;;;10.52;3.97;;;19.70;79.90;;;;;;5017568;28;20025;-91
2023/06/09 02:26:24;;;;;;;12.38;4.10;;;19.70;80.00;;;;;;5033394;28;20060;-90
2023/06/09 02:29:51;;;;;;;14.30;4.50;;;19.60;80.10;;;;;;5034127;28;20055;-89
2023/06/09 02:32:16;;;;;;;10.40;4.18;;;19.60;80.40;;;;;;5034100;28;20022;-90
2023/06/09 02:34:47;;;;;;;13.38;4.18;;;19.50;80.30;;;;;;5017550;28;20088;-91
2023/06/09 02:37:19;;;;;;;10.15;4.13;;;19.50;80.40;;;;;;5017564;28;20060;-90
2023/06/09 02:39:45;;;;;;;9.77;3.72;;;19.50;80.50;;;;;;5017313;28;20026;-90
2023/06/09 02:42:13;;;;;;;9.25;3.65;;;19.40;80.70;;;;;;5017503;28;20025;-91
2023/06/09 02:44:41;;;;;;;12.43;4.30;;;19.40;80.80;;;;;;5017372;28;20021;-90
2023/06/09 02:47:16;;;;;;;12.95;4.70;;;19.40;80.80;;;;;;5034068;28;20055;-91
2023/06/09 02:49:42;;;;;;;11.63;4.18;;;19.40;80.90;;;;;;5017211;28;20022;-91
2023/06/09 02:52:09;;;;;;;10.70;4.22;;;19.30;81.00;;;;;;5017495;28;20109;-90
2023/06/09 02:54:44;;;;;;;12.45;4.10;;;19.30;81.10;;;;;;5017109;28;20124;-91
2023/06/09 02:57:10;;;;;;;9.82;4.22;;;19.20;81.20;;;;;;5016653;28;20037;-90
2023/06/09 03:00:08;;;;;;;13.90;3.95;;;19.20;81.40;;;;;;5016892;28;20052;-90
2023/06/09 03:02:44;;;;;;;12.88;4.63;;;19.20;81.40;;;;;;5016835;28;20084;-90
2023/06/09 03:05:12;;;;;;;9.90;3.92;;;19.20;81.50;;;;;;5001746;28;20164;-90
2023/06/09 03:07:40;;;;;;;10.63;4.18;;;19.10;81.70;;;;;;5017051;28;20025;-90
2023/06/09 03:10:09;;;;;;;12.23;4.70;;;19.10;81.80;;;;;;5017262;28;20025;-91
2023/06/09 03:12:40;;;;;;;11.93;4.55;;;19.10;81.80;;;;;;5017291;28;20112;-90
2023/06/09 03:15:06;;;;;;;;;;;19.10;82.00;;;;;;5017739;28;20039;-90
2023/06/09 03:17:34;;;;;;;13.77;4.35;;;19.00;82.10;;;;;;5017303;28;19905;-90
2023/06/09 03:20:06;;;;;;;9.73;3.78;;;19.00;82.10;;;;;;5017920;28;20432;-91
2023/06/09 03:22:36;;;;;;;15.15;4.13;;;19.00;82.20;;;;;;5019363;28;20017;-89
2023/06/09 03:25:12;;;;;;;15.80;4.50;;;18.90;82.30;;;;;;5025309;28;20020;-89
2023/06/09 03:27:46;;;;;;;13.80;4.05;;;18.90;82.50;;;;;;5039243;28;20077;-89
2023/06/09 03:30:19;;;;;;;13.25;4.45;;;18.90;82.50;;;;;;5040135;28;20057;-91
2023/06/09 03:32:45;;;;;;;13.32;4.22;;;18.90;82.70;;;;;;5040427;28;20016;-90
2023/06/09 03:35:20;;;;;;;14.80;4.93;;;18.90;82.80;;;;;;5032418;28;20466;-91
2023/06/09 03:37:48;;;;;;;10.13;4.18;;;18.80;82.80;;;;;;5016648;28;20469;-90
2023/06/09 03:40:17;;;;;;;10.57;4.20;;;18.80;82.80;;;;;;5016682;28;20028;-91
2023/06/09 03:42:46;;;;;;;13.63;4.35;;;18.80;82.90;;;;;;5016698;28;20029;-90
2023/06/09 03:45:12;;;;;;;10.65;3.97;;;18.80;83.10;;;;;;5016739;28;20365;-92
2023/06/09 03:47:40;;;;;;;9.25;3.83;;;18.70;83.10;;;;;;5016294;28;20034;-90
2023/06/09 03:50:18;;;;;;;13.45;4.28;;;18.70;83.20;;;;;;5016653;28;20468;-90
2023/06/09 03:52:46;;;;;;;12.13;4.65;;;18.70;83.20;;;;;;5018232;28;20034;-91
2023/06/09 03:55:29;;;;;;;;;;;;;;;;;;;;;
2023/06/09 03:58:13;;;;;;;;;;;;;;;;;;;;;
2023/06/09 04:00:42;;;;;;;14.55;4.75;;;18.70;83.80;;;;;;5033876;28;20053;-91
2023/06/09 04:03:08;;;;;;;11.52;4.45;;;18.60;83.90;;;;;;5032806;28;20024;-92
2023/06/09 04:05:34;;;;;;;12.60;4.97;;;18.60;84.00;;;;;;5016606;28;20112;-91
2023/06/09 04:08:08;;;;;;;16.20;4.95;;;18.50;84.00;;;;;;5034030;28;20419;-91
2023/06/09 04:10:36;;;;;;;10.23;4.85;;;18.60;84.30;;;;;;5016415;28;20559;-90
2023/06/09 04:13:04;;;;;;;15.30;5.25;;;18.50;84.30;;;;;;5017369;28;20092;-90
2023/06/09 04:15:33;;;;;;;20.00;5.70;;;18.50;85.00;;;;;;5016177;28;20041;-90
2023/06/09 04:17:59;;;;;;;13.38;4.78;;;18.50;84.50;;;;;;5016196;28;20116;-91
2023/06/09 04:20:54;;;;;;;14.27;5.18;;;18.50;84.70;;;;;;5016085;28;20025;-90
2023/06/09 04:23:20;;;;;;;18.63;4.88;;;18.50;84.90;;;;;;5019281;28;20428;-90
2023/06/09 04:25:49;;;;;;;17.85;5.32;;;18.40;84.80;;;;;;5016806;28;20037;-90
2023/06/09 04:28:17;;;;;;;12.85;4.63;;;18.40;85.00;;;;;;5000037;28;20025;-90
2023/06/09 04:31:33;;;;;;;11.63;5.03;;;18.40;85.20;;;;;;5000020;28;20136;-92
2023/06/09 04:34:10;;;;;;;20.13;5.55;;;18.40;85.30;;;;;;5032864;28;20033;-90
2023/06/09 04:36:56;;;;;;;17.73;5.18;;;18.40;85.40;;;;;;5019998;28;20130;-91
2023/06/09 04:39:28;;;;;;;14.10;4.57;;;18.30;85.60;;;;;;5019661;28;20103;-91
2023/06/09 04:42:09;;;;;;;11.77;5.18;;;18.30;85.60;;;;;;5020731;28;20013;-90
2023/06/09 04:44:40;;;;;;;14.55;5.35;;;18.30;85.80;;;;;;5006083;28;20037;-92
2023/06/09 04:47:10;;;;;;;15.38;5.22;;;18.30;85.80;;;;;;5006950;28;20096;-90
2023/06/09 04:50:08;;;;;;;14.75;5.30;;;18.30;86.10;;;;;;5039957;28;20014;-93
2023/06/09 04:55:26;;;;;;;13.88;5.40;;;18.20;86.40;;;;;;5051633;28;20034;-86
2023/06/09 04:57:57;;;;;;;13.50;5.03;;;18.30;86.60;;;;;;5024105;28;20025;-86
2023/06/09 05:00:26;;;;;;;14.55;5.25;;;18.20;87.30;;;;;;5031240;28;20053;-88
2023/06/09 05:02:53;;;;;;;14.13;4.95;;;18.20;86.90;;;;;;5066768;28;20009;-88
2023/06/09 05:05:20;;;;;;;12.57;5.07;;;18.20;87.20;;;;;;5028522;28;20033;-88
2023/06/09 05:07:49;;;;;;;16.38;5.28;;;18.20;87.40;;;;;;5045359;28;20037;-92
2023/06/09 05:10:15;;;;;;;13.32;4.90;;;18.20;87.50;;;;;;5039383;28;20017;-90
2023/06/09 05:12:49;;;;;;;17.20;5.95;;;18.30;87.70;;;;;;5039525;28;20060;-90
2023/06/09 05:15:16;;;;;;;15.70;6.03;;;18.20;87.70;;;;;;5038964;28;20033;-90
2023/06/09 05:17:49;;;;;;;16.75;6.18;;;18.20;87.70;;;;;;5039344;28;20531;-90
2023/06/09 05:20:18;;;;;;;16.42;6.30;;;18.20;87.90;;;;;;5023299;28;20075;-90
2023/06/09 05:22:44;;;;;;;18.27;5.45;;;18.20;88.00;;;;;;5038076;28;20017;-89
2023/06/09 05:25:14;;;;;;;18.00;5.80;;;18.30;88.20;;;;;;5037838;28;20107;-90
2023/06/09 05:27:45;;;;;;;13.77;6.15;;;18.30;88.40;;;;;;5038948;28;20032;-92
2023/06/09 05:30:19;;;;;;;14.88;5.78;;;18.30;88.50;;;;;;5038030;28;20025;-91
2023/06/09 05:32:53;;;;;;;12.82;6.03;;;18.30;88.60;;;;;;5038462;28;20029;-90
2023/06/09 05:35:21;;;;;;;14.40;5.10;;;18.30;88.80;;;;;;5043716;28;20029;-90
2023/06/09 05:38:07;;;;;;;15.63;5.95;;;18.30;88.90;;;;;;5042597;28;20158;-90
2023/06/09 05:40:33;;;;;;;15.50;6.03;;;18.30;88.90;;;;;;5034900;28;20048;-91
2023/06/09 05:43:18;;;;;;;17.50;6.15;;;18.30;88.80;;;;;;5043801;28;20001;-90
2023/06/09 05:45:58;;;;;;;14.70;6.32;;;18.30;89.00;;;;;;5057723;28;20025;-91
2023/06/09 05:48:29;;;;;;;15.55;5.75;;;18.30;89.10;;;;;;5033392;28;20032;-90
2023/06/09 05:51:01;;;;;;;13.57;6.00;;;18.30;89.30;;;;;;5041215;28;20029;-91
2023/06/09 05:53:33;;;;;;;18.67;6.88;;;18.40;89.60;;;;;;5041492;28;20516;-91
2023/06/09 05:56:04;;;;;;;18.77;6.60;;;18.40;89.70;;;;;;5023041;28;20332;-91
2023/06/09 05:58:47;;;;;;;19.08;6.72;;;18.40;89.90;;;;;;5040443;28;20546;-91
2023/06/09 06:01:16;;;;;;;13.07;6.22;;;18.40;90.00;;;;;;5018836;28;20045;-90
2023/06/09 06:03:42;;;;;;;15.48;6.30;;;18.40;90.00;;;;;;5019135;28;20025;-90
2023/06/09 06:06:11;;;;;;;16.20;6.65;;;18.40;90.10;;;;;;5019144;28;20377;-90
2023/06/09 06:08:38;;;;;;;16.70;6.80;;;18.50;90.20;;;;;;5018913;28;20102;-90
2023/06/09 06:11:05;;;;;;;15.98;6.80;;;18.50;90.20;;;;;;5019087;28;20075;-90
2023/06/09 06:13:30;;;;;;;16.10;6.55;;;18.50;90.30;;;;;;5316148;23;20473;-96
2023/06/09 06:16:00;;;;;;;13.60;6.20;;;18.50;90.30;;;;;;5045138;28;20036;-94
2023/06/09 06:18:26;;;;;;;13.70;6.25;;;18.50;90.40;;;;;;5081565;28;20040;-96
2023/06/09 06:20:53;;;;;;;16.35;7.47;;;18.60;90.40;;;;;;5065550;28;20028;-95
2023/06/09 06:23:19;;;;;;;15.60;6.50;;;18.60;90.40;;;;;;5082395;28;20024;-95
2023/06/09 06:25:45;;;;;;;15.63;6.97;;;18.60;90.50;;;;;;5081502;28;20125;-95
2023/06/09 06:28:10;;;;;;;14.00;6.30;;;18.60;90.50;;;;;;5081036;28;20016;-95
2023/06/09 06:30:37;;;;;;;14.77;7.22;;;18.70;90.60;;;;;;5063937;28;20028;-94
2023/06/09 06:33:07;;;;;;;15.73;6.78;;;18.70;90.60;;;;;;5064939;28;20407;-95
2023/06/09 06:35:33;;;;;;;14.18;6.47;;;18.70;90.60;;;;;;5063342;28;20366;-95
2023/06/09 06:37:59;;;;;;;13.07;6.57;;;18.80;90.70;;;;;;5077575;28;20457;-89
2023/06/09 06:40:26;;;;;;;12.80;6.60;;;18.80;90.80;;;;;;5067116;28;20020;-89
2023/06/09 06:42:52;;;;;;;15.27;6.50;;;18.90;90.90;;;;;;5040368;28;20939;-90
2023/06/09 06:45:18;;;;;;;19.17;7.10;;;18.90;90.90;;;;;;5078876;28;20377;-91
2023/06/09 06:47:45;;;;;;;13.40;6.50;;;18.90;91.00;;;;;;5078401;28;20044;-93
2023/06/09 06:50:12;;;;;;;15.43;6.75;;;19.00;91.00;;;;;;5078693;28;20586;-92
2023/06/09 06:52:38;;;;;;;16.85;7.28;;;19.00;91.10;;;;;;5095760;28;20511;-93
2023/06/09 06:55:07;;;;;;;16.35;7.32;;;19.00;91.10;;;;;;5061414;28;20032;-92
2023/06/09 06:57:34;;;;;;;16.27;6.88;;;19.10;91.20;;;;;;5062683;28;20017;-92
2023/06/09 07:00:00;;;;;;;13.23;6.78;;;19.10;91.20;;;;;;5078122;28;20530;-90
2023/06/09 07:02:26;;;;;;;16.00;6.78;;;19.20;91.30;;;;;;5078108;28;20050;-90
2023/06/09 07:04:52;;;;;;;14.20;6.53;;;19.20;91.30;;;;;;5044749;28;20083;-90
2023/06/09 07:07:17;;;;;;;13.18;6.63;;;19.30;91.40;;;;;;5044895;28;20031;-89
2023/06/09 07:09:43;;;;;;;11.13;6.05;;;19.30;91.50;;;;;;5061517;28;20023;-89
2023/06/09 07:12:09;;;;;;;12.05;6.03;;;19.40;91.50;;;;;;5062028;28;20377;-89
2023/06/09 07:14:35;;;;;;;14.63;6.47;;;19.40;91.50;;;;;;5044941;28;20050;-92
2023/06/09 07:17:01;;;;;;;12.02;6.05;;;19.50;91.60;;;;;;5060400;28;20030;-91
2023/06/09 07:19:28;;;;;;;17.40;7.47;;;19.50;91.60;;;;;;5024922;28;20052;-91
2023/06/09 07:21:54;;;;;;;13.05;6.60;;;19.60;91.60;;;;;;5040642;28;20028;-91
2023/06/09 07:24:21;;;;;;;12.93;5.82;;;19.60;91.60;;;;;;5060879;28;20484;-91
2023/06/09 07:26:46;;;;;;;27.98;7.80;;;19.60;91.70;;;;;;5044051;28;20031;-92
2023/06/09 07:29:13;;;;;;;16.33;6.97;;;19.70;91.70;;;;;;5044192;28;20024;-92
2023/06/09 07:31:39;;;;;;;13.82;6.82;;;19.80;91.70;;;;;;5050926;28;20012;-89
2023/06/09 07:34:05;;;;;;;17.27;7.65;;;19.80;91.80;;;;;;5082161;28;20017;-90
2023/06/09 07:36:34;;;;;;;13.63;6.85;;;19.90;91.80;;;;;;5082032;28;20142;-89
2023/06/09 07:39:00;;;;;;;13.38;6.45;;;19.90;91.80;;;;;;5083656;28;20016;-89
2023/06/09 07:41:28;;;;;;;13.57;6.18;;;20.00;91.90;;;;;;5057781;28;20092;-90
2023/06/09 07:43:53;;;;;;;12.90;6.00;;;20.10;92.00;;;;;;5029829;28;20051;-89
2023/06/09 07:46:19;;;;;;;10.00;5.97;;;20.10;92.10;;;;;;5024900;28;20465;-89
2023/06/09 07:48:44;;;;;;;15.00;7.18;;;20.20;92.20;;;;;;5024816;28;20082;-90
2023/06/09 07:51:18;;;;;;;16.80;7.00;;;20.20;92.20;;;;;;5024251;28;20029;-91
2023/06/09 07:53:44;;;;;;;17.73;7.25;;;20.30;92.30;;;;;;5057651;28;20029;-91
2023/06/09 07:56:09;;;;;;;15.52;7.60;;;20.30;92.30;;;;;;5040980;28;20455;-90
2023/06/09 07:58:38;;;;;;;16.70;7.10;;;20.40;92.30;;;;;;5040747;28;20025;-91
2023/06/09 08:01:03;;;;;;;12.27;6.18;;;20.50;92.20;;;;;;5057040;28;20420;-90
2023/06/09 08:03:29;;;;;;;13.98;6.75;;;20.50;92.20;;;;;;5041174;28;20017;-91
2023/06/09 08:05:56;;;;;;;12.73;6.75;;;20.60;92.30;;;;;;5040818;28;20009;-90
2023/06/09 08:08:22;;;;;;;14.40;7.55;;;20.60;92.30;;;;;;5064958;28;20008;-90
2023/06/09 08:10:48;;;;;;;17.02;6.72;;;20.70;92.40;;;;;;5082917;28;20111;-93
2023/06/09 08:13:15;;;;;;;14.38;6.07;;;20.70;92.40;;;;;;5046414;28;20068;-89
2023/06/09 08:15:41;;;;;;;12.90;6.57;;;20.80;92.50;;;;;;5030224;28;20489;-89
2023/06/09 08:18:08;;;;;;;14.57;6.43;;;20.90;92.60;;;;;;5058898;28;20034;-90
2023/06/09 08:20:33;;;;;;;11.55;6.28;;;20.90;92.70;;;;;;5102036;28;20027;-90
2023/06/09 08:22:59;;;;;;;13.50;6.68;;;21.00;92.70;;;;;;5068039;28;20058;-92
2023/06/09 08:25:25;;;;;;;11.23;5.63;;;21.10;92.70;;;;;;5085016;28;20034;-93
2023/06/09 08:27:50;;;;;;;13.57;6.82;;;21.10;92.80;;;;;;5086599;28;20039;-95
2023/06/09 08:30:16;;;;;;;14.55;7.32;;;21.20;92.90;;;;;;5103736;28;20055;-94
2023/06/09 08:32:43;;;;;;;13.52;7.18;;;21.20;92.80;;;;;;5102087;28;20376;-94
2023/06/09 08:35:09;;;;;;;11.88;6.47;;;21.30;92.70;;;;;;5068323;28;20435;-94
2023/06/09 08:37:36;;;;;;;14.82;6.68;;;21.40;92.70;;;;;;5067702;28;20127;-95
2023/06/09 08:40:04;;;;;;;12.48;6.35;;;21.50;92.80;;;;;;5100941;28;20460;-94
2023/06/09 08:42:31;;;;;;;14.40;6.55;;;21.50;92.90;;;;;;5100990;28;20027;-94
2023/06/09 08:45:04;;;;;;;14.23;7.07;;;21.60;93.00;;;;;;5084684;28;20076;-94
2023/06/09 08:47:33;;;;;;;10.48;6.95;;;21.60;93.00;;;;;;5101974;28;20024;-93
2023/06/09 08:50:02;;;;;;;14.48;6.97;;;21.70;93.00;;;;;;5105425;28;20016;-93
2023/06/09 08:52:28;;;;;;;12.57;6.68;;;21.70;93.00;;;;;;5095717;28;20023;-93
2023/06/09 08:54:59;;;;;;;10.73;6.25;;;21.80;93.10;;;;;;5091051;28;20042;-92
2023/06/09 08:57:50;;;;;;;16.00;7.40;;;21.90;93.10;;;;;;5102554;28;20026;-94
2023/06/09 09:00:16;;;;;;;15.65;7.18;;;22.00;92.80;;;;;;5084832;28;20157;-92
2023/06/09 09:02:43;;;;;;;11.52;7.00;;;22.00;92.70;;;;;;5084126;28;20062;-92
2023/06/09 09:05:10;;;;;;;14.55;7.15;;;22.10;92.40;;;;;;5083910;28;20020;-92
2023/06/09 09:07:36;;;;;;;12.13;5.88;;;22.20;92.50;;;;;;5083763;28;20043;-92
2023/06/09 09:10:02;;;;;;;20.42;7.50;;;22.30;92.60;;;;;;5101081;28;20395;-92
2023/06/09 09:12:45;;;;;;;12.68;7.25;;;22.30;92.60;;;;;;5100108;28;20069;-93
2023/06/09 09:15:10;;;;;;;15.43;7.43;;;22.40;92.60;;;;;;5100832;28;20039;-93
2023/06/09 09:17:39;;;;;;;14.27;7.70;;;22.40;92.60;;;;;;5066778;28;20426;-94
2023/06/09 09:20:11;;;;;;;13.80;7.05;;;22.40;92.50;;;;;;5083440;28;20032;-94
2023/06/09 09:23:04;;;;;;;12.35;7.18;;;22.50;92.40;;;;;;5084915;28;20049;-93
2023/06/09 09:25:30;;;;;;;12.95;6.80;;;22.60;92.40;;;;;;5079180;28;20505;-93
2023/06/09 09:28:00;;;;;;;11.75;6.85;;;22.70;92.30;;;;;;5106556;28;20046;-93
2023/06/09 09:30:48;;;;;;;12.50;6.70;;;22.70;92.40;;;;;;5103328;28;20034;-92
2023/06/09 09:33:21;;;;;;;11.55;7.03;;;22.80;92.30;;;;;;5100654;28;20024;-92
2023/06/09 09:35:53;;;;;;;14.85;7.18;;;22.90;92.30;;;;;;5099922;28;20028;-93
2023/06/09 09:38:27;;;;;;;12.40;7.00;;;23.00;92.20;;;;;;5082613;28;20030;-90
2023/06/09 09:40:55;;;;;;;11.77;7.07;;;23.00;92.20;;;;;;5100496;28;20020;-92
2023/06/09 09:43:25;;;;;;;12.82;6.60;;;23.10;92.10;;;;;;5098917;28;20111;-91
2023/06/09 09:45:52;;;;;;;10.85;6.78;;;23.10;91.90;;;;;;5099696;28;20019;-91
2023/06/09 09:48:21;;;;;;;12.05;6.97;;;23.20;92.20;;;;;;5100073;28;20027;-93
2023/06/09 09:50:48;;;;;;;8.65;6.00;;;23.30;91.90;;;;;;5083059;28;20020;-92
2023/06/09 09:53:15;;;;;;;12.05;6.95;;;23.30;91.80;;;;;;5099715;28;20045;-90
2023/06/09 09:55:47;;;;;;;9.75;6.50;;;23.40;91.70;;;;;;5083109;28;20049;-91
2023/06/09 09:58:14;;;;;;;11.75;6.55;;;23.50;91.40;;;;;;5064797;28;20031;-90
2023/06/09 10:00:46;;;;;;;16.10;7.60;;;23.50;91.30;;;;;;5099119;28;20083;-90
2023/06/09 10:03:19;;;;;;;14.27;7.30;;;23.60;91.10;;;;;;5106958;28;20016;-90
2023/06/09 10:05:47;;;;;;;12.52;7.25;;;23.70;91.00;;;;;;5090478;28;20039;-89
2023/06/09 10:08:27;;;;;;;11.82;6.63;;;23.70;90.90;;;;;;5106893;28;20023;-89
2023/06/09 10:10:56;;;;;;;14.60;7.15;;;23.80;90.90;;;;;;5104516;28;20085;-93
2023/06/09 10:13:22;;;;;;;12.98;7.10;;;23.90;90.90;;;;;;5082762;28;20031;-93
2023/06/09 10:15:51;;;;;;;14.30;7.20;;;23.90;90.80;;;;;;5082175;28;20044;-92
2023/06/09 10:18:17;;;;;;;11.07;6.50;;;24.10;90.70;;;;;;5105812;28;20042;-91
2023/06/09 10:20:43;;;;;;;8.63;6.07;;;24.10;90.60;;;;;;5105712;28;20075;-90
2023/06/09 10:23:09;;;;;;;10.43;6.13;;;24.20;90.60;;;;;;5110382;28;20035;-92
2023/06/09 10:25:35;;;;;;;11.43;6.80;;;24.20;90.50;;;;;;5082530;28;20376;-92
2023/06/09 10:28:01;;;;;;;10.57;5.88;;;24.30;90.30;;;;;;5081317;28;20069;-92
2023/06/09 10:30:27;;;;;;;13.45;6.22;;;24.40;90.40;;;;;;5067508;28;20028;-92
2023/06/09 10:33:00;;;;;;;12.82;6.22;;;24.40;90.00;;;;;;5100417;28;20374;-90
2023/06/09 10:35:28;;;;;;;10.35;5.75;;;24.50;89.70;;;;;;5099899;28;20042;-93
2023/06/09 10:37:56;;;;;;;10.75;6.60;;;24.60;89.80;;;;;;5099998;28;20027;-92
2023/06/09 10:40:45;;;;;;;9.13;5.97;;;24.60;89.50;;;;;;5091076;28;20472;-93
2023/06/09 10:43:39;;;;;;;10.38;6.45;;;24.70;89.00;;;;;;5099311;28;20087;-92
2023/06/09 10:46:05;;;;;;;9.25;5.82;;;24.80;88.50;;;;;;5098692;28;20032;-91
2023/06/09 10:48:51;;;;;;;10.48;5.82;;;24.80;88.60;;;;;;5095672;28;20024;-90
2023/06/09 10:51:26;;;;;;;9.85;5.70;;;24.90;88.00;;;;;;5107178;28;20054;-91
2023/06/09 10:54:07;;;;;;;10.75;5.50;;;25.00;87.70;;;;;;5098083;28;20126;-91
2023/06/09 10:56:35;;;;;;;11.10;5.78;;;25.00;87.30;;;;;;5099173;28;20024;-91
2023/06/09 10:59:01;;;;;;;10.05;5.60;;;25.10;87.10;;;;;;5099220;28;20020;-90
2023/06/09 11:01:26;;;;;;;12.75;5.47;;;25.10;86.80;;;;;;5081750;28;20016;-90
2023/06/09 11:03:52;;;;;;;8.18;5.35;;;25.20;86.50;;;;;;5081596;28;20031;-92
2023/06/09 11:06:18;;;;;;;9.93;5.07;;;25.30;85.80;;;;;;5065530;28;20038;-93
2023/06/09 11:09:12;;;;;;;9.43;5.45;;;25.30;85.30;;;;;;5090151;28;20533;-96
2023/06/09 11:11:57;;;;;;;9.75;5.10;;;25.40;85.20;;;;;;5099790;28;20030;-96
2023/06/09 11:14:56;;;;;;;10.07;5.43;;;25.50;85.00;;;;;;5099745;28;20491;-91
2023/06/09 11:17:52;;;;;;;10.13;5.25;;;25.50;84.20;;;;;;5078893;28;20553;-92
2023/06/09 11:20:23;;;;;;;8.20;5.10;;;25.60;84.20;;;;;;5098614;28;20019;-92
2023/06/09 11:22:49;;;;;;;7.88;4.88;;;25.70;84.30;;;;;;5081057;28;20040;-95
2023/06/09 11:25:15;;;;;;;6.60;4.45;;;25.70;84.00;;;;;;5108475;28;20074;-91
2023/06/09 11:27:56;;;;;;;8.10;4.80;;;25.80;83.80;;;;;;5109378;28;20027;-90
2023/06/09 11:30:27;;;;;;;8.73;5.43;;;25.90;83.60;;;;;;5111427;28;20054;-89
2023/06/09 11:33:01;;;;;;;7.30;4.65;;;25.90;82.80;;;;;;5084871;28;20528;-91
2023/06/09 11:35:39;;;;;;;8.05;4.88;;;26.00;82.40;;;;;;5062047;28;20130;-92
2023/06/09 11:38:07;;;;;;;7.72;4.80;;;26.10;82.30;;;;;;5072986;28;20120;-90
2023/06/09 11:40:54;;;;;;;7.55;4.78;;;26.10;82.10;;;;;;4980383;28;20030;-91
2023/06/09 11:43:23;;;;;;;6.63;4.43;;;26.20;82.10;;;;;;5066438;28;20025;-95
2023/06/09 11:45:49;;;;;;;6.22;4.28;;;26.30;81.80;;;;;;5085519;28;20018;-96
2023/06/09 11:48:15;;;;;;;8.60;4.65;;;26.30;80.80;;;;;;5087765;28;20447;-95
2023/06/09 11:50:45;;;;;;;9.07;4.25;;;26.40;79.80;;;;;;5053399;28;20381;-95
2023/06/09 11:53:16;;;;;;;5.93;3.90;;;26.50;79.60;;;;;;5086252;28;20030;-96
2023/06/09 11:55:42;;;;;;;;;;;26.60;79.20;;;;;;5087165;28;20026;-96
2023/06/09 11:58:09;;;;;;;8.68;4.25;;;26.60;78.40;;;;;;4999628;28;19906;-94
2023/06/09 12:00:43;;;;;;;8.00;4.43;;;26.70;75.20;;;;;;5007152;28;20045;-91
2023/06/09 12:03:11;;;;;;;7.63;4.20;;;26.80;74.40;;;;;;5094748;28;20394;-92
2023/06/09 12:05:37;;;;;;;7.30;4.38;;;26.90;74.50;;;;;;5091473;28;20053;-91
2023/06/09 12:08:10;;;;;;;7.85;4.13;;;27.00;74.80;;;;;;4985561;28;20048;-91
2023/06/09 12:10:36;;;;;;;6.75;4.03;;;27.10;74.50;;;;;;4986716;28;20163;-89
2023/06/09 12:13:02;;;;;;;7.07;3.95;;;27.30;72.20;;;;;;5052419;28;20074;-90
2023/06/09 12:15:28;;;;;;;6.70;3.92;;;27.30;72.40;;;;;;5065918;28;20048;-91
2023/06/09 12:17:58;;;;;;;6.78;4.00;;;27.40;71.70;;;;;;5047798;28;20020;-93
2023/06/09 12:20:32;;;;;;;7.78;4.35;;;27.50;71.60;;;;;;5081201;28;20060;-92
2023/06/09 12:23:06;;;;;;;6.43;4.05;;;27.60;71.70;;;;;;5080844;28;20016;-92
2023/06/09 12:25:33;;;;;;;8.68;4.28;;;27.70;71.20;;;;;;5080918;28;20035;-93
2023/06/09 12:28:21;;;;;;;10.15;4.47;;;27.70;71.20;;;;;;5080649;28;20031;-95
2023/06/09 12:31:06;;;;;;;6.50;4.65;;;27.70;69.70;;;;;;5081915;28;20016;-93
2023/06/09 12:33:33;;;;;;;6.45;4.03;;;27.80;69.10;;;;;;5101073;28;20062;-90
2023/06/09 12:36:15;;;;;;;6.80;3.78;;;27.80;69.50;;;;;;5116152;22;20078;-91
2023/06/09 12:39:04;;;;;;;10.32;4.30;;;27.90;70.60;;;;;;5101717;28;20031;-93
2023/06/09 12:42:06;;;;;;;4.82;4.15;;;28.00;70.00;;;;;;5121597;28;20023;-96
2023/06/09 12:44:39;;;;;;;5.03;3.88;;;28.00;69.90;;;;;;5044542;28;20036;-89
2023/06/09 12:47:29;;;;;;;6.93;4.03;;;28.00;68.60;;;;;;5086805;28;20064;-88
2023/06/09 12:49:59;;;;;;;;;;;28.10;68.30;;;;;;5080167;28;20028;-89
2023/06/09 13:05:51;;;;;;;;;;;;;;;;;;;;;
2023/06/09 13:08:50;;;;;;;5.82;4.18;;;28.40;67.20;;;;;;5086004;28;20104;-91
2023/06/09 13:14:54;;;;;;;8.50;4.07;;;28.60;66.20;;;;;;5030640;28;20364;-92
2023/06/09 13:17:51;;;;;;;8.68;4.30;;;28.60;66.50;;;;;;5050724;28;20037;-92
2023/06/09 13:20:29;;;;;;;6.93;4.07;;;28.70;67.00;;;;;;5053771;28;20047;-92
2023/06/09 13:23:16;;;;;;;;;;;;;;;;;;;;;
2023/06/09 13:25:53;;;;;;;7.30;4.13;;;28.90;65.90;;;;;;5071400;28;20068;-92
2023/06/09 13:28:26;;;;;;;5.85;3.95;;;28.90;65.30;;;;;;5062407;28;20024;-93
2023/06/09 13:31:21;;;;;;;6.28;3.83;;;28.90;65.40;;;;;;5076815;28;20033;-92
2023/06/09 13:34:20;;;;;;;;;;;;;;;;;;;;;
2023/06/09 13:36:46;;;;;;;7.90;4.07;;;29.00;63.80;;;;;;5061381;28;20035;-93